sensor_id;sensor_type;location;lat;lon;timestamp;pressure;altitude;pressure_sealevel;temperature;humidity
78223;BME280;67497;53.058;21.618;2023-11-21T00:00:20;99937.94;;;-2.60;81.83
78223;BME280;67497;53.058;21.618;2023-11-21T00:02:21;99937.75;;;-2.57;81.08
78223;BME280;67497;53.058;21.618;2023-11-21T00:04:22;99929.19;;;-2.63;81.22
78223;BME280;67497;53.058;21.618;2023-11-21T00:06:22;99928.56;;;-2.68;81.16
78223;BME280;67497;53.058;21.618;2023-11-21T00:08:23;99943.63;;;-2.66;82.06
78223;BME280;67497;53.058;21.618;2023-11-21T00:10:23;99934.63;;;-2.65;81.41
78223;BME280;67497;53.058;21.618;2023-11-21T00:12:23;99933.13;;;-2.70;81.83
78223;BME280;67497;53.058;21.618;2023-11-21T00:14:25;99935.50;;;-2.64;81.26
78223;BME280;67497;53.058;21.618;2023-11-21T00:16:25;99942.91;;;-2.69;81.85
78223;BME280;67497;53.058;21.618;2023-11-21T00:18:25;99936.31;;;-2.79;81.58
78223;BME280;67497;53.058;21.618;2023-11-21T00:20:26;99940.69;;;-2.78;81.53
78223;BME280;67497;53.058;21.618;2023-11-21T00:22:26;99953.56;;;-2.68;82.20
78223;BME280;67497;53.058;21.618;2023-11-21T00:24:26;99916.91;;;-2.84;81.79
78223;BME280;67497;53.058;21.618;2023-11-21T00:26:27;99952.06;;;-2.73;81.92
78223;BME280;67497;53.058;21.618;2023-11-21T00:28:27;99948.28;;;-2.69;82.85
78223;BME280;67497;53.058;21.618;2023-11-21T00:30:28;99950.16;;;-2.71;81.96
78223;BME280;67497;53.058;21.618;2023-11-21T00:32:29;99934.56;;;-2.80;82.86
78223;BME280;67497;53.058;21.618;2023-11-21T00:34:29;99938.97;;;-2.79;82.15
78223;BME280;67497;53.058;21.618;2023-11-21T00:36:29;99952.22;;;-2.76;82.50
78223;BME280;67497;53.058;21.618;2023-11-21T00:38:30;99960.91;;;-2.71;81.72
78223;BME280;67497;53.058;21.618;2023-11-21T00:40:33;99951.34;;;-2.77;82.76
78223;BME280;67497;53.058;21.618;2023-11-21T00:42:33;99950.63;;;-2.80;82.60
78223;BME280;67497;53.058;21.618;2023-11-21T00:44:34;99948.19;;;-2.85;82.12
78223;BME280;67497;53.058;21.618;2023-11-21T00:46:34;99968.31;;;-2.76;82.95
78223;BME280;67497;53.058;21.618;2023-11-21T00:48:34;99962.38;;;-2.83;82.82
78223;BME280;67497;53.058;21.618;2023-11-21T00:50:35;99968.31;;;-2.76;82.12
78223;BME280;67497;53.058;21.618;2023-11-21T00:52:35;99957.03;;;-2.83;82.46
78223;BME280;67497;53.058;21.618;2023-11-21T00:54:36;99957.81;;;-2.81;82.58
78223;BME280;67497;53.058;21.618;2023-11-21T00:56:36;99970.66;;;-2.70;82.24
78223;BME280;67497;53.058;21.618;2023-11-21T00:58:37;99970.66;;;-2.70;82.89
78223;BME280;67497;53.058;21.618;2023-11-21T01:00:37;99953.00;;;-2.74;82.45
78223;BME280;67497;53.058;21.618;2023-11-21T01:02:39;99957.81;;;-2.64;82.14
78223;BME280;67497;53.058;21.618;2023-11-21T01:04:39;99958.59;;;-2.62;82.18
78223;BME280;67497;53.058;21.618;2023-11-21T01:06:40;99944.16;;;-2.59;82.16
78223;BME280;67497;53.058;21.618;2023-11-21T01:08:40;99950.16;;;-2.71;82.14
78223;BME280;67497;53.058;21.618;2023-11-21T01:10:41;99961.81;;;-2.72;82.84
78223;BME280;67497;53.058;21.618;2023-11-21T01:12:41;99947.56;;;-2.73;82.63
78223;BME280;67497;53.058;21.618;2023-11-21T01:14:41;99957.25;;;-2.70;82.64
78223;BME280;67497;53.058;21.618;2023-11-21T01:16:42;99959.16;;;-2.72;83.05
78223;BME280;67497;53.058;21.618;2023-11-21T01:18:42;99963.63;;;-2.73;81.86
78223;BME280;67497;53.058;21.618;2023-11-21T01:20:42;99957.59;;;-2.76;82.47
78223;BME280;67497;53.058;21.618;2023-11-21T01:22:43;99957.75;;;-2.79;82.58
78223;BME280;67497;53.058;21.618;2023-11-21T01:24:43;99961.28;;;-2.79;82.39
78223;BME280;67497;53.058;21.618;2023-11-21T01:26:43;99957.44;;;-2.73;82.64
78223;BME280;67497;53.058;21.618;2023-11-21T01:28:46;99968.16;;;-2.73;82.72
78223;BME280;67497;53.058;21.618;2023-11-21T01:30:49;99964.13;;;-2.82;82.33
78223;BME280;67497;53.058;21.618;2023-11-21T01:32:49;99965.84;;;-2.81;82.29
78223;BME280;67497;53.058;21.618;2023-11-21T01:34:50;99965.84;;;-2.81;81.55
78223;BME280;67497;53.058;21.618;2023-11-21T01:36:51;99964.81;;;-2.78;82.62
78223;BME280;67497;53.058;21.618;2023-11-21T01:38:51;99963.41;;;-2.85;82.93
78223;BME280;67497;53.058;21.618;2023-11-21T01:40:51;99964.13;;;-2.82;82.98
78223;BME280;67497;53.058;21.618;2023-11-21T01:42:52;99970.13;;;-2.77;81.63
78223;BME280;67497;53.058;21.618;2023-11-21T01:44:53;99964.81;;;-2.78;81.42
78223;BME280;67497;53.058;21.618;2023-11-21T01:46:55;99979.56;;;-2.87;81.43
78223;BME280;67497;53.058;21.618;2023-11-21T01:48:57;99974.84;;;-2.82;81.84
78223;BME280;67497;53.058;21.618;2023-11-21T01:50:58;99972.00;;;-2.79;82.01
78223;BME280;67497;53.058;21.618;2023-11-21T01:52:59;99982.50;;;-2.74;81.87
78223;BME280;67497;53.058;21.618;2023-11-21T01:55:00;99977.03;;;-2.73;81.78
78223;BME280;67497;53.058;21.618;2023-11-21T01:57:01;99978.88;;;-2.73;81.84
78223;BME280;67497;53.058;21.618;2023-11-21T01:59:03;99979.81;;;-2.74;81.50
78223;BME280;67497;53.058;21.618;2023-11-21T02:01:03;99984.22;;;-2.73;82.28
78223;BME280;67497;53.058;21.618;2023-11-21T02:03:04;99982.50;;;-2.74;81.48
78223;BME280;67497;53.058;21.618;2023-11-21T02:05:04;99971.13;;;-2.79;81.72
78223;BME280;67497;53.058;21.618;2023-11-21T02:07:05;99980.91;;;-2.78;81.39
78223;BME280;67497;53.058;21.618;2023-11-21T02:09:08;99977.44;;;-2.80;81.17
78223;BME280;67497;53.058;21.618;2023-11-21T02:11:09;99989.28;;;-2.84;81.70
78223;BME280;67497;53.058;21.618;2023-11-21T02:13:09;99991.47;;;-2.75;80.32
78223;BME280;67497;53.058;21.618;2023-11-21T02:15:13;99985.63;;;-2.83;80.96
78223;BME280;67497;53.058;21.618;2023-11-21T02:17:20;99980.41;;;-2.86;80.97
78223;BME280;67497;53.058;21.618;2023-11-21T02:19:21;99985.00;;;-2.88;81.57
78223;BME280;67497;53.058;21.618;2023-11-21T02:21:30;99990.34;;;-2.88;81.11
78223;BME280;67497;53.058;21.618;2023-11-21T02:23:30;99987.03;;;-2.93;81.72
78223;BME280;67497;53.058;21.618;2023-11-21T02:25:32;99996.75;;;-2.91;81.61
78223;BME280;67497;53.058;21.618;2023-11-21T02:27:33;99999.28;;;-2.88;80.62
78223;BME280;67497;53.058;21.618;2023-11-21T02:29:33;100001.94;;;-2.88;81.39
78223;BME280;67497;53.058;21.618;2023-11-21T02:31:33;100005.81;;;-2.93;80.84
78223;BME280;67497;53.058;21.618;2023-11-21T02:33:34;100002.03;;;-2.89;80.85
78223;BME280;67497;53.058;21.618;2023-11-21T02:35:34;100003.28;;;-2.96;81.85
78223;BME280;67497;53.058;21.618;2023-11-21T02:37:35;99999.38;;;-2.89;80.88
78223;BME280;67497;53.058;21.618;2023-11-21T02:39:35;100002.09;;;-2.91;80.98
78223;BME280;67497;53.058;21.618;2023-11-21T02:41:37;100002.19;;;-2.92;81.37
78223;BME280;67497;53.058;21.618;2023-11-21T02:43:37;100006.59;;;-2.91;81.08
78223;BME280;67497;53.058;21.618;2023-11-21T02:45:38;100010.09;;;-2.89;81.34
78223;BME280;67497;53.058;21.618;2023-11-21T02:47:39;100010.13;;;-2.91;80.56
78223;BME280;67497;53.058;21.618;2023-11-21T02:49:39;100014.00;;;-2.96;80.79
78223;BME280;67497;53.058;21.618;2023-11-21T02:51:40;100013.94;;;-2.95;81.35
78223;BME280;67497;53.058;21.618;2023-11-21T02:53:41;100018.75;;;-2.84;81.40
78223;BME280;67497;53.058;21.618;2023-11-21T02:55:41;100020.47;;;-2.83;80.40
78223;BME280;67497;53.058;21.618;2023-11-21T02:57:41;100018.91;;;-2.87;81.58
78223;BME280;67497;53.058;21.618;2023-11-21T02:59:42;100023.53;;;-2.91;80.22
78223;BME280;67497;53.058;21.618;2023-11-21T03:01:43;100019.94;;;-2.90;80.27
78223;BME280;67497;53.058;21.618;2023-11-21T03:03:44;100005.03;;;-2.95;80.73
78223;BME280;67497;53.058;21.618;2023-11-21T03:05:44;100022.81;;;-2.94;81.87
78223;BME280;67497;53.058;21.618;2023-11-21T03:07:44;100034.41;;;-2.94;81.13
78223;BME280;67497;53.058;21.618;2023-11-21T03:09:45;100024.56;;;-2.93;80.59
78223;BME280;67497;53.058;21.618;2023-11-21T03:11:46;100024.56;;;-2.93;80.15
78223;BME280;67497;53.058;21.618;2023-11-21T03:13:46;100028.25;;;-2.96;80.68
78223;BME280;67497;53.058;21.618;2023-11-21T03:15:46;100014.97;;;-2.97;80.40
78223;BME280;67497;53.058;21.618;2023-11-21T03:17:47;100028.34;;;-2.97;81.11
78223;BME280;67497;53.058;21.618;2023-11-21T03:19:49;100022.50;;;-2.88;80.48
78223;BME280;67497;53.058;21.618;2023-11-21T03:21:49;100031.66;;;-2.92;80.86
78223;BME280;67497;53.058;21.618;2023-11-21T03:23:49;100031.53;;;-2.89;80.76
78223;BME280;67497;53.058;21.618;2023-11-21T03:25:50;100034.97;;;-2.87;80.00
78223;BME280;67497;53.058;21.618;2023-11-21T03:27:50;100038.44;;;-2.85;80.94
78223;BME280;67497;53.058;21.618;2023-11-21T03:29:50;100044.81;;;-2.88;81.02
78223;BME280;67497;53.058;21.618;2023-11-21T03:31:51;100035.13;;;-2.90;79.87
78223;BME280;67497;53.058;21.618;2023-11-21T03:33:51;100036.88;;;-2.89;80.72
78223;BME280;67497;53.058;21.618;2023-11-21T03:35:53;100042.25;;;-2.89;79.82
78223;BME280;67497;53.058;21.618;2023-11-21T03:37:54;100039.63;;;-2.91;80.89
78223;BME280;67497;53.058;21.618;2023-11-21T03:39:55;100036.22;;;-2.94;80.00
78223;BME280;67497;53.058;21.618;2023-11-21T03:41:56;100034.50;;;-2.95;80.02
78223;BME280;67497;53.058;21.618;2023-11-21T03:43:56;100046.09;;;-2.95;79.59
78223;BME280;67497;53.058;21.618;2023-11-21T03:45:56;100047.03;;;-2.96;80.50
78223;BME280;67497;53.058;21.618;2023-11-21T03:47:57;100047.66;;;-2.91;79.91
78223;BME280;67497;53.058;21.618;2023-11-21T03:49:57;100051.34;;;-2.93;80.51
78223;BME280;67497;53.058;21.618;2023-11-21T03:51:58;100046.00;;;-2.93;80.08
78223;BME280;67497;53.058;21.618;2023-11-21T03:53:58;100048.59;;;-2.92;79.60
78223;BME280;67497;53.058;21.618;2023-11-21T03:55:58;100046.72;;;-2.90;80.62
78223;BME280;67497;53.058;21.618;2023-11-21T03:57:58;100046.00;;;-2.93;80.51
78223;BME280;67497;53.058;21.618;2023-11-21T03:59:59;100040.50;;;-2.90;80.04
78223;BME280;67497;53.058;21.618;2023-11-21T04:01:59;100045.69;;;-2.87;79.42
78223;BME280;67497;53.058;21.618;2023-11-21T04:03:59;100035.13;;;-2.90;79.91
78223;BME280;67497;53.058;21.618;2023-11-21T04:06:00;100043.22;;;-2.92;80.66
78223;BME280;67497;53.058;21.618;2023-11-21T04:08:01;100051.34;;;-2.93;80.81
78223;BME280;67497;53.058;21.618;2023-11-21T04:10:01;100041.50;;;-2.93;80.52
78223;BME280;67497;53.058;21.618;2023-11-21T04:12:02;100050.09;;;-2.86;79.83
78223;BME280;67497;53.058;21.618;2023-11-21T04:14:03;100049.31;;;-2.88;79.79
78223;BME280;67497;53.058;21.618;2023-11-21T04:16:04;100057.28;;;-2.87;79.41
78223;BME280;67497;53.058;21.618;2023-11-21T04:18:04;100057.06;;;-2.82;79.77
78223;BME280;67497;53.058;21.618;2023-11-21T04:20:05;100068.56;;;-2.80;80.02
78223;BME280;67497;53.058;21.618;2023-11-21T04:22:09;100063.44;;;-2.85;80.44
78223;BME280;67497;53.058;21.618;2023-11-21T04:24:09;100065.09;;;-2.82;80.59
78223;BME280;67497;53.058;21.618;2023-11-21T04:26:09;100070.31;;;-2.79;79.87
78223;BME280;67497;53.058;21.618;2023-11-21T04:28:10;100059.88;;;-2.85;79.99
78223;BME280;67497;53.058;21.618;2023-11-21T04:30:11;100064.16;;;-2.81;79.26
78223;BME280;67497;53.058;21.618;2023-11-21T04:32:11;100067.00;;;-2.84;79.16
78223;BME280;67497;53.058;21.618;2023-11-21T04:34:12;100069.19;;;-2.75;79.53
78223;BME280;67497;53.058;21.618;2023-11-21T04:36:13;100073.63;;;-2.74;79.51
78223;BME280;67497;53.058;21.618;2023-11-21T04:38:13;100070.00;;;-2.73;79.35
78223;BME280;67497;53.058;21.618;2023-11-21T04:40:14;100072.19;;;-2.81;78.98
78223;BME280;67497;53.058;21.618;2023-11-21T04:42:14;100064.16;;;-2.81;79.07
78223;BME280;67497;53.058;21.618;2023-11-21T04:44:14;100061.63;;;-2.84;78.76
78223;BME280;67497;53.058;21.618;2023-11-21T04:46:16;100067.00;;;-2.84;79.37
78223;BME280;67497;53.058;21.618;2023-11-21T04:48:16;100063.34;;;-2.83;78.84
78223;BME280;67497;53.058;21.618;2023-11-21T04:50:17;100061.63;;;-2.84;78.53
78223;BME280;67497;53.058;21.618;2023-11-21T04:52:17;100072.91;;;-2.78;78.80
78223;BME280;67497;53.058;21.618;2023-11-21T04:54:17;100080.31;;;-2.83;79.11
78223;BME280;67497;53.058;21.618;2023-11-21T04:56:18;100092.53;;;-2.77;79.14
78223;BME280;67497;53.058;21.618;2023-11-21T04:58:18;100090.88;;;-2.80;78.97
78223;BME280;67497;53.058;21.618;2023-11-21T05:00:19;100095.38;;;-2.80;79.69
78223;BME280;67497;53.058;21.618;2023-11-21T05:02:21;100091.91;;;-2.82;78.87
78223;BME280;67497;53.058;21.618;2023-11-21T05:04:21;100100.66;;;-2.79;78.57
78223;BME280;67497;53.058;21.618;2023-11-21T05:06:22;100102.22;;;-2.75;78.69
78223;BME280;67497;53.058;21.618;2023-11-21T05:08:24;100109.25;;;-2.72;79.29
78223;BME280;67497;53.058;21.618;2023-11-21T05:10:24;100105.50;;;-2.68;79.31
78223;BME280;67497;53.058;21.618;2023-11-21T05:12:24;100102.72;;;-2.67;78.88
78223;BME280;67497;53.058;21.618;2023-11-21T05:14:25;100093.94;;;-2.70;78.53
78223;BME280;67497;53.058;21.618;2023-11-21T05:16:26;100102.00;;;-2.70;79.08
78223;BME280;67497;53.058;21.618;2023-11-21T05:18:27;100111.16;;;-2.74;79.18
78223;BME280;67497;53.058;21.618;2023-11-21T05:20:29;100118.41;;;-2.76;78.78
78223;BME280;67497;53.058;21.618;2023-11-21T05:22:30;100107.34;;;-2.70;78.86
78223;BME280;67497;53.058;21.618;2023-11-21T05:24:30;100117.09;;;-2.68;78.85
78223;BME280;67497;53.058;21.618;2023-11-21T05:26:31;100109.97;;;-2.69;78.66
78223;BME280;67497;53.058;21.618;2023-11-21T05:28:31;100109.19;;;-2.71;78.20
78223;BME280;67497;53.058;21.618;2023-11-21T05:30:31;100116.41;;;-2.73;79.10
78223;BME280;67497;53.058;21.618;2023-11-21T05:32:32;100117.38;;;-2.74;79.12
78223;BME280;67497;53.058;21.618;2023-11-21T05:34:33;100120.84;;;-2.72;79.24
78223;BME280;67497;53.058;21.618;2023-11-21T05:36:33;100114.47;;;-2.69;79.52
78223;BME280;67497;53.058;21.618;2023-11-21T05:38:35;100120.63;;;-2.67;78.66
78223;BME280;67497;53.058;21.618;2023-11-21T05:40:36;100120.75;;;-2.70;78.78
78223;BME280;67497;53.058;21.618;2023-11-21T05:42:37;100125.69;;;-2.61;78.51
78223;BME280;67497;53.058;21.618;2023-11-21T05:44:41;100127.63;;;-2.65;79.42
78223;BME280;67497;53.058;21.618;2023-11-21T05:46:41;100121.25;;;-2.62;79.42
78223;BME280;67497;53.058;21.618;2023-11-21T05:48:43;100124.94;;;-2.65;78.23
78223;BME280;67497;53.058;21.618;2023-11-21T05:50:43;100136.56;;;-2.64;78.49
78223;BME280;67497;53.058;21.618;2023-11-21T05:52:45;100142.16;;;-2.69;78.92
78223;BME280;67497;53.058;21.618;2023-11-21T05:54:46;100146.56;;;-2.68;78.76
78223;BME280;67497;53.058;21.618;2023-11-21T05:56:46;100149.97;;;-2.64;78.90
78223;BME280;67497;53.058;21.618;2023-11-21T05:58:47;100149.81;;;-2.61;79.72
78223;BME280;67497;53.058;21.618;2023-11-21T06:00:47;100156.97;;;-2.62;80.23
78223;BME280;67497;53.058;21.618;2023-11-21T06:02:51;100147.41;;;-2.67;79.49
78223;BME280;67497;53.058;21.618;2023-11-21T06:04:53;100156.56;;;-2.71;80.35
78223;BME280;67497;53.058;21.618;2023-11-21T06:06:53;100158.28;;;-2.70;80.65
78223;BME280;67497;53.058;21.618;2023-11-21T06:08:53;100154.03;;;-2.74;81.03
78223;BME280;67497;53.058;21.618;2023-11-21T06:10:54;100156.81;;;-2.76;81.27
78223;BME280;67497;53.058;21.618;2023-11-21T06:12:55;100165.91;;;-2.80;81.68
78223;BME280;67497;53.058;21.618;2023-11-21T06:14:55;100174.88;;;-2.81;81.94
78223;BME280;67497;53.058;21.618;2023-11-21T06:16:56;100170.56;;;-2.83;83.14
78223;BME280;67497;53.058;21.618;2023-11-21T06:18:57;100165.19;;;-2.83;82.98
78223;BME280;67497;53.058;21.618;2023-11-21T06:20:58;100169.63;;;-2.82;83.30
78223;BME280;67497;53.058;21.618;2023-11-21T06:23:00;100174.88;;;-2.81;84.13
78223;BME280;67497;53.058;21.618;2023-11-21T06:25:04;100180.34;;;-2.82;84.82
78223;BME280;67497;53.058;21.618;2023-11-21T06:27:05;100184.78;;;-2.81;84.07
78223;BME280;67497;53.058;21.618;2023-11-21T06:29:06;100182.28;;;-2.86;84.75
78223;BME280;67497;53.058;21.618;2023-11-21T06:31:07;100185.06;;;-2.87;84.95
78223;BME280;67497;53.058;21.618;2023-11-21T06:33:07;100185.97;;;-2.88;84.50
78223;BME280;67497;53.058;21.618;2023-11-21T06:35:08;100182.16;;;-2.83;84.94
78223;BME280;67497;53.058;21.618;2023-11-21T06:37:10;100193.88;;;-2.85;84.56
78223;BME280;67497;53.058;21.618;2023-11-21T06:39:11;100190.41;;;-2.87;84.89
78223;BME280;67497;53.058;21.618;2023-11-21T06:41:11;100193.00;;;-2.86;85.16
78223;BME280;67497;53.058;21.618;2023-11-21T06:43:15;100193.97;;;-2.87;85.27
78223;BME280;67497;53.058;21.618;2023-11-21T06:45:16;100190.41;;;-2.87;85.08
78223;BME280;67497;53.058;21.618;2023-11-21T06:47:17;100187.75;;;-2.87;84.72
78223;BME280;67497;53.058;21.618;2023-11-21T06:49:17;100198.22;;;-2.83;84.59
78223;BME280;67497;53.058;21.618;2023-11-21T06:51:18;100194.81;;;-2.86;85.21
78223;BME280;67497;53.058;21.618;2023-11-21T06:53:18;100200.25;;;-2.88;85.01
78223;BME280;67497;53.058;21.618;2023-11-21T06:55:19;100204.88;;;-2.91;84.34
78223;BME280;67497;53.058;21.618;2023-11-21T06:57:20;100209.97;;;-2.85;84.59
78223;BME280;67497;53.058;21.618;2023-11-21T06:59:20;100203.34;;;-2.78;84.40
78223;BME280;67497;53.058;21.618;2023-11-21T07:01:20;100198.81;;;-2.76;84.47
78223;BME280;67497;53.058;21.618;2023-11-21T07:03:20;100213.22;;;-2.79;84.36
78223;BME280;67497;53.058;21.618;2023-11-21T07:05:21;100211.13;;;-2.72;84.00
78223;BME280;67497;53.058;21.618;2023-11-21T07:07:22;100210.09;;;-2.70;83.76
78223;BME280;67497;53.058;21.618;2023-11-21T07:09:22;100218.00;;;-2.67;83.47
78223;BME280;67497;53.058;21.618;2023-11-21T07:11:23;100214.59;;;-2.70;83.92
78223;BME280;67497;53.058;21.618;2023-11-21T07:13:23;100213.50;;;-2.66;82.99
78223;BME280;67497;53.058;21.618;2023-11-21T07:15:23;100222.28;;;-2.63;82.57
78223;BME280;67497;53.058;21.618;2023-11-21T07:17:26;100222.97;;;-2.59;82.37
78223;BME280;67497;53.058;21.618;2023-11-21T07:19:26;100224.88;;;-2.61;82.33
78223;BME280;67497;53.058;21.618;2023-11-21T07:21:26;100235.47;;;-2.58;81.20
78223;BME280;67497;53.058;21.618;2023-11-21T07:23:27;100232.69;;;-2.57;81.87
78223;BME280;67497;53.058;21.618;2023-11-21T07:25:27;100235.19;;;-2.52;80.52
78223;BME280;67497;53.058;21.618;2023-11-21T07:27:27;100238.50;;;-2.47;79.89
78223;BME280;67497;53.058;21.618;2023-11-21T07:29:28;100234.81;;;-2.45;79.04
78223;BME280;67497;53.058;21.618;2023-11-21T07:31:29;100234.56;;;-2.40;79.28
78223;BME280;67497;53.058;21.618;2023-11-21T07:33:30;100236.31;;;-2.39;77.26
78223;BME280;67497;53.058;21.618;2023-11-21T07:35:31;100243.44;;;-2.38;77.29
78223;BME280;67497;53.058;21.618;2023-11-21T07:37:31;100224.72;;;-2.39;76.27
78223;BME280;67497;53.058;21.618;2023-11-21T07:39:31;100240.94;;;-2.43;76.54
78223;BME280;67497;53.058;21.618;2023-11-21T07:41:32;100235.72;;;-2.46;76.79
78223;BME280;67497;53.058;21.618;2023-11-21T07:43:32;100233.78;;;-2.42;76.31
78223;BME280;67497;53.058;21.618;2023-11-21T07:45:35;100246.41;;;-2.44;76.24
78223;BME280;67497;53.058;21.618;2023-11-21T07:47:35;100241.97;;;-2.45;76.52
78223;BME280;67497;53.058;21.618;2023-11-21T07:49:36;100247.19;;;-2.42;76.75
78223;BME280;67497;53.058;21.618;2023-11-21T07:51:36;100240.41;;;-2.49;76.40
78223;BME280;67497;53.058;21.618;2023-11-21T07:53:36;100240.16;;;-2.45;76.43
78223;BME280;67497;53.058;21.618;2023-11-21T07:55:36;100237.56;;;-2.46;75.45
78223;BME280;67497;53.058;21.618;2023-11-21T07:57:38;100233.13;;;-2.47;76.09
78223;BME280;67497;53.058;21.618;2023-11-21T07:59:38;100243.78;;;-2.46;76.05
78223;BME280;67497;53.058;21.618;2023-11-21T08:01:38;100240.03;;;-2.42;75.52
78223;BME280;67497;53.058;21.618;2023-11-21T08:03:40;100247.97;;;-2.40;75.51
78223;BME280;67497;53.058;21.618;2023-11-21T08:05:40;100239.94;;;-2.40;76.16
78223;BME280;67497;53.058;21.618;2023-11-21T08:07:41;100245.88;;;-2.33;75.49
78223;BME280;67497;53.058;21.618;2023-11-21T08:09:41;100252.13;;;-2.33;75.81
78223;BME280;67497;53.058;21.618;2023-11-21T08:11:41;100244.84;;;-2.31;76.53
78223;BME280;67497;53.058;21.618;2023-11-21T08:13:42;100248.31;;;-2.29;74.87
78223;BME280;67497;53.058;21.618;2023-11-21T08:15:42;100257.34;;;-2.30;75.44
78223;BME280;67497;53.058;21.618;2023-11-21T08:17:46;100248.03;;;-2.23;75.78
78223;BME280;67497;53.058;21.618;2023-11-21T08:19:47;100244.47;;;-2.23;75.86
78223;BME280;67497;53.058;21.618;2023-11-21T08:21:49;100254.13;;;-2.19;75.54
78223;BME280;67497;53.058;21.618;2023-11-21T08:23:49;100265.88;;;-2.22;74.64
78223;BME280;67497;53.058;21.618;2023-11-21T08:25:54;100262.22;;;-2.21;74.63
78223;BME280;67497;53.058;21.618;2023-11-21T08:27:54;100264.91;;;-2.21;75.31
78223;BME280;67497;53.058;21.618;2023-11-21T08:29:54;100265.78;;;-2.20;75.24
78223;BME280;67497;53.058;21.618;2023-11-21T08:31:56;100272.75;;;-2.16;75.02
78223;BME280;67497;53.058;21.618;2023-11-21T08:33:57;100260.44;;;-2.20;74.75
78223;BME280;67497;53.058;21.618;2023-11-21T08:35:57;100274.44;;;-2.14;74.87
78223;BME280;67497;53.058;21.618;2023-11-21T08:37:57;100271.66;;;-2.12;75.28
78223;BME280;67497;53.058;21.618;2023-11-21T08:39:58;100276.16;;;-2.13;74.14
78223;BME280;67497;53.058;21.618;2023-11-21T08:41:59;100277.41;;;-2.03;75.14
78223;BME280;67497;53.058;21.618;2023-11-21T08:44:00;100273.81;;;-2.02;74.40
78223;BME280;67497;53.058;21.618;2023-11-21T08:46:00;100273.81;;;-2.02;74.18
78223;BME280;67497;53.058;21.618;2023-11-21T08:48:01;100277.28;;;-2.00;73.46
78223;BME280;67497;53.058;21.618;2023-11-21T08:50:02;100282.50;;;-1.97;74.42
78223;BME280;67497;53.058;21.618;2023-11-21T08:52:02;100277.84;;;-1.93;73.95
78223;BME280;67497;53.058;21.618;2023-11-21T08:54:05;100285.81;;;-1.92;74.12
78223;BME280;67497;53.058;21.618;2023-11-21T08:56:10;100291.03;;;-1.89;73.86
78223;BME280;67497;53.058;21.618;2023-11-21T08:58:12;100276.69;;;-1.88;74.68
78223;BME280;67497;53.058;21.618;2023-11-21T09:00:12;100289.16;;;-1.87;73.76
78223;BME280;67497;53.058;21.618;2023-11-21T09:02:15;100283.81;;;-1.87;72.86
78223;BME280;67497;53.058;21.618;2023-11-21T09:04:16;100276.97;;;-1.94;73.33
78223;BME280;67497;53.058;21.618;2023-11-21T09:06:17;100281.56;;;-1.96;72.85
78223;BME280;67497;53.058;21.618;2023-11-21T09:08:17;100289.31;;;-1.90;73.01
78223;BME280;67497;53.058;21.618;2023-11-21T09:10:17;100285.19;;;-1.97;73.32
78223;BME280;67497;53.058;21.618;2023-11-21T09:12:18;100289.31;;;-1.90;73.68
78223;BME280;67497;53.058;21.618;2023-11-21T09:14:19;100291.03;;;-1.89;73.51
78223;BME280;67497;53.058;21.618;2023-11-21T09:16:19;100291.75;;;-1.85;73.00
78223;BME280;67497;53.058;21.618;2023-11-21T09:18:20;100298.31;;;-1.91;72.76
78223;BME280;67497;53.058;21.618;2023-11-21T09:20:20;100291.91;;;-1.88;72.87
78223;BME280;67497;53.058;21.618;2023-11-21T09:22:22;100288.59;;;-1.93;72.61
78223;BME280;67497;53.058;21.618;2023-11-21T09:24:24;100294.19;;;-1.98;72.91
78223;BME280;67497;53.058;21.618;2023-11-21T09:26:25;100297.53;;;-1.93;73.76
78223;BME280;67497;53.058;21.618;2023-11-21T09:28:27;100289.31;;;-1.90;73.48
78223;BME280;67497;53.058;21.618;2023-11-21T09:30:27;100301.13;;;-1.94;72.60
78223;BME280;67497;53.058;21.618;2023-11-21T09:32:27;100314.84;;;-2.00;72.41
78223;BME280;67497;53.058;21.618;2023-11-21T09:34:28;100314.94;;;-2.01;72.31
78223;BME280;67497;53.058;21.618;2023-11-21T09:36:29;100313.28;;;-2.04;72.16
78223;BME280;67497;53.058;21.618;2023-11-21T09:38:31;100314.00;;;-2.00;71.97
78223;BME280;67497;53.058;21.618;2023-11-21T09:40:31;100312.31;;;-2.03;71.19
78223;BME280;67497;53.058;21.618;2023-11-21T09:42:36;100318.66;;;-2.04;72.07
78223;BME280;67497;53.058;21.618;2023-11-21T09:44:45;100312.09;;;-1.98;72.83
78223;BME280;67497;53.058;21.618;2023-11-21T09:46:47;100327.09;;;-1.94;72.21
78223;BME280;67497;53.058;21.618;2023-11-21T09:48:51;100311.13;;;-1.97;71.97
78223;BME280;67497;53.058;21.618;2023-11-21T09:50:54;100314.06;;;-2.02;72.10
78223;BME280;67497;53.058;21.618;2023-11-21T09:54:57;100312.81;;;-1.95;71.57
78223;BME280;67497;53.058;21.618;2023-11-21T09:56:59;100320.66;;;-1.90;72.45
78223;BME280;67497;53.058;21.618;2023-11-21T09:59:00;100322.31;;;-1.88;72.50
78223;BME280;67497;53.058;21.618;2023-11-21T10:01:05;100314.25;;;-1.88;72.11
78223;BME280;67497;53.058;21.618;2023-11-21T10:03:08;100319.34;;;-1.82;73.48
78223;BME280;67497;53.058;21.618;2023-11-21T10:05:09;100329.94;;;-1.78;73.01
78223;BME280;67497;53.058;21.618;2023-11-21T10:07:13;100333.69;;;-1.83;71.31
78223;BME280;67497;53.058;21.618;2023-11-21T10:09:17;100330.28;;;-1.86;71.07
78223;BME280;67497;53.058;21.618;2023-11-21T10:11:20;100334.84;;;-1.88;72.51
78223;BME280;67497;53.058;21.618;2023-11-21T10:13:23;100322.59;;;-1.94;71.52
78223;BME280;67497;53.058;21.618;2023-11-21T10:15:24;100334.22;;;-1.93;71.72
78223;BME280;67497;53.058;21.618;2023-11-21T10:17:27;100332.56;;;-1.96;71.65
78223;BME280;67497;53.058;21.618;2023-11-21T10:19:31;100329.09;;;-1.98;71.64
78223;BME280;67497;53.058;21.618;2023-11-21T10:21:32;100335.53;;;-2.02;72.32
78223;BME280;67497;53.058;21.618;2023-11-21T10:23:33;100330.81;;;-1.97;72.93
78223;BME280;67497;53.058;21.618;2023-11-21T10:25:33;100330.94;;;-2.00;72.63
78223;BME280;67497;53.058;21.618;2023-11-21T10:27:39;100330.66;;;-1.94;72.01